sensor_id;sensor_type;location;lat;lon;timestamp;pressure;altitude;pressure_sealevel;temperature
45034;BMP280;30771;47.988;-4.186;2022-07-23T06:00:54;101069.50;;;16.43
45034;BMP280;30771;47.988;-4.186;2022-07-23T06:03:19;101066.72;;;16.49
45034;BMP280;30771;47.988;-4.186;2022-07-23T06:05:44;101065.94;;;16.60
45034;BMP280;30771;47.988;-4.186;2022-07-23T06:08:09;101078.91;;;16.68
45034;BMP280;30771;47.988;-4.186;2022-07-23T06:10:35;101065.16;;;16.71
45034;BMP280;30771;47.988;-4.186;2022-07-23T06:13:00;101071.66;;;16.87
45034;BMP280;30771;47.988;-4.186;2022-07-23T06:15:25;101068.22;;;16.98
45034;BMP280;30771;47.988;-4.186;2022-07-23T06:17:51;101063.59;;;17.05
45034;BMP280;30771;47.988;-4.186;2022-07-23T06:20:16;101071.38;;;17.18
45034;BMP280;30771;47.988;-4.186;2022-07-23T06:22:41;101080.50;;;17.22
45034;BMP280;30771;47.988;-4.186;2022-07-23T06:25:07;101077.25;;;17.32
45034;BMP280;30771;47.988;-4.186;2022-07-23T06:27:32;101067.97;;;17.34
45034;BMP280;30771;47.988;-4.186;2022-07-23T06:29:58;101078.16;;;17.49
45034;BMP280;30771;47.988;-4.186;2022-07-23T06:32:23;101091.50;;;17.60
45034;BMP280;30771;47.988;-4.186;2022-07-23T06:34:48;101096.44;;;17.68
45034;BMP280;30771;47.988;-4.186;2022-07-23T06:37:14;101100.03;;;17.74
45034;BMP280;30771;47.988;-4.186;2022-07-23T06:39:39;101101.66;;;17.75
45034;BMP280;30771;47.988;-4.186;2022-07-23T06:42:04;101100.94;;;17.79
45034;BMP280;30771;47.988;-4.186;2022-07-23T06:44:30;101090.84;;;17.81
45034;BMP280;30771;47.988;-4.186;2022-07-23T06:46:55;101090.72;;;17.88
45034;BMP280;30771;47.988;-4.186;2022-07-23T06:49:20;101100.19;;;17.95
45034;BMP280;30771;47.988;-4.186;2022-07-23T06:51:45;101103.53;;;18.02
45034;BMP280;30771;47.988;-4.186;2022-07-23T06:54:11;101107.94;;;18.08
45034;BMP280;30771;47.988;-4.186;2022-07-23T06:56:36;101111.25;;;18.15
45034;BMP280;30771;47.988;-4.186;2022-07-23T06:59:02;101104.50;;;18.24
45034;BMP280;30771;47.988;-4.186;2022-07-23T07:01:27;101110.69;;;18.42
45034;BMP280;30771;47.988;-4.186;2022-07-23T07:03:52;101113.25;;;18.65
45034;BMP280;30771;47.988;-4.186;2022-07-23T07:06:18;101114.72;;;18.89
45034;BMP280;30771;47.988;-4.186;2022-07-23T07:08:43;101108.00;;;19.19
45034;BMP280;30771;47.988;-4.186;2022-07-23T07:11:08;101110.28;;;19.49
45034;BMP280;30771;47.988;-4.186;2022-07-23T07:13:33;101114.91;;;19.75
45034;BMP280;30771;47.988;-4.186;2022-07-23T07:15:59;101114.97;;;19.80
45034;BMP280;30771;47.988;-4.186;2022-07-23T07:18:24;101115.47;;;19.77
45034;BMP280;30771;47.988;-4.186;2022-07-23T07:20:49;101112.28;;;19.80
45034;BMP280;30771;47.988;-4.186;2022-07-23T07:23:14;101121.22;;;19.90
45034;BMP280;30771;47.988;-4.186;2022-07-23T07:25:40;101105.63;;;20.04
45034;BMP280;30771;47.988;-4.186;2022-07-23T07:28:05;101109.94;;;20.32
45034;BMP280;30771;47.988;-4.186;2022-07-23T07:30:30;101110.84;;;20.47
45034;BMP280;30771;47.988;-4.186;2022-07-23T07:32:56;101107.25;;;20.63
45034;BMP280;30771;47.988;-4.186;2022-07-23T07:35:21;101107.00;;;20.65
45034;BMP280;30771;47.988;-4.186;2022-07-23T07:37:46;101099.97;;;20.54
45034;BMP280;30771;47.988;-4.186;2022-07-23T07:40:12;101107.59;;;20.72
45034;BMP280;30771;47.988;-4.186;2022-07-23T07:42:47;101115.25;;;20.90
45034;BMP280;30771;47.988;-4.186;2022-07-23T07:45:12;101106.50;;;21.04
45034;BMP280;30771;47.988;-4.186;2022-07-23T07:47:38;101103.94;;;21.19
45034;BMP280;30771;47.988;-4.186;2022-07-23T07:50:03;101106.41;;;21.36
45034;BMP280;30771;47.988;-4.186;2022-07-23T07:52:29;101111.88;;;21.51
45034;BMP280;30771;47.988;-4.186;2022-07-23T07:54:54;101121.31;;;21.68
45034;BMP280;30771;47.988;-4.186;2022-07-23T07:57:19;101130.72;;;21.81
45034;BMP280;30771;47.988;-4.186;2022-07-23T07:59:44;101129.97;;;21.86
45034;BMP280;30771;47.988;-4.186;2022-07-23T08:02:10;101120.88;;;22.02
45034;BMP280;30771;47.988;-4.186;2022-07-23T08:04:35;101124.66;;;22.16
45034;BMP280;30771;47.988;-4.186;2022-07-23T08:07:00;101131.63;;;22.22
45034;BMP280;30771;47.988;-4.186;2022-07-23T08:09:25;101133.28;;;22.43
45034;BMP280;30771;47.988;-4.186;2022-07-23T08:11:51;101120.41;;;22.55
45034;BMP280;30771;47.988;-4.186;2022-07-23T08:14:16;101132.72;;;22.86
45034;BMP280;30771;47.988;-4.186;2022-07-23T08:16:41;101130.25;;;23.09
45034;BMP280;30771;47.988;-4.186;2022-07-23T08:19:07;101127.50;;;23.39
45034;BMP280;30771;47.988;-4.186;2022-07-23T08:21:32;101126.88;;;23.52
45034;BMP280;30771;47.988;-4.186;2022-07-23T08:23:57;101129.34;;;23.49
45034;BMP280;30771;47.988;-4.186;2022-07-23T08:26:22;101122.63;;;23.36
45034;BMP280;30771;47.988;-4.186;2022-07-23T08:28:48;101119.19;;;23.26
45034;BMP280;30771;47.988;-4.186;2022-07-23T08:31:13;101125.72;;;23.05
45034;BMP280;30771;47.988;-4.186;2022-07-23T08:33:38;101141.03;;;22.79
45034;BMP280;30771;47.988;-4.186;2022-07-23T08:36:04;101138.91;;;22.56
45034;BMP280;30771;47.988;-4.186;2022-07-23T08:38:29;101143.19;;;22.57
45034;BMP280;30771;47.988;-4.186;2022-07-23T08:40:55;101145.88;;;22.52
45034;BMP280;30771;47.988;-4.186;2022-07-23T08:43:23;101141.84;;;22.50
45034;BMP280;30771;47.988;-4.186;2022-07-23T08:45:50;101136.50;;;22.50
45034;BMP280;30771;47.988;-4.186;2022-07-23T08:48:19;101133.53;;;22.56
45034;BMP280;30771;47.988;-4.186;2022-07-23T08:50:46;101130.59;;;22.88
45034;BMP280;30771;47.988;-4.186;2022-07-23T08:53:12;101127.78;;;23.23
45034;BMP280;30771;47.988;-4.186;2022-07-23T08:55:38;101131.47;;;23.52
45034;BMP280;30771;47.988;-4.186;2022-07-23T08:58:03;101119.81;;;23.71
45034;BMP280;30771;47.988;-4.186;2022-07-23T09:00:29;101121.81;;;23.89
45034;BMP280;30771;47.988;-4.186;2022-07-23T09:02:55;101126.06;;;24.01
45034;BMP280;30771;47.988;-4.186;2022-07-23T09:05:20;101118.19;;;24.14
45034;BMP280;30771;47.988;-4.186;2022-07-23T09:08:09;101122.41;;;24.25
45034;BMP280;30771;47.988;-4.186;2022-07-23T09:10:57;101119.06;;;24.38
45034;BMP280;30771;47.988;-4.186;2022-07-23T09:13:35;101124.00;;;24.26
45034;BMP280;30771;47.988;-4.186;2022-07-23T09:16:04;101128.56;;;23.87
45034;BMP280;30771;47.988;-4.186;2022-07-23T09:18:36;101127.63;;;23.63
45034;BMP280;30771;47.988;-4.186;2022-07-23T09:36:54;101117.25;;;25.51
45034;BMP280;30771;47.988;-4.186;2022-07-23T09:39:31;101123.19;;;25.53
45034;BMP280;30771;47.988;-4.186;2022-07-23T09:41:59;101122.22;;;25.21
45034;BMP280;30771;47.988;-4.186;2022-07-23T09:44:41;101140.03;;;24.98
45034;BMP280;30771;47.988;-4.186;2022-07-23T09:47:07;101124.91;;;25.02
45034;BMP280;30771;47.988;-4.186;2022-07-23T09:49:32;101129.25;;;25.22
45034;BMP280;30771;47.988;-4.186;2022-07-23T09:51:59;101134.09;;;25.43
45034;BMP280;30771;47.988;-4.186;2022-07-23T09:54:28;101137.75;;;25.52
45034;BMP280;30771;47.988;-4.186;2022-07-23T09:56:54;101132.28;;;25.57
45034;BMP280;30771;47.988;-4.186;2022-07-23T09:59:24;101135.53;;;25.59
45034;BMP280;30771;47.988;-4.186;2022-07-23T10:01:50;101143.06;;;25.39
45034;BMP280;30771;47.988;-4.186;2022-07-23T10:04:17;101131.09;;;25.26
45034;BMP280;30771;47.988;-4.186;2022-07-23T10:06:43;101136.03;;;25.38
45034;BMP280;30771;47.988;-4.186;2022-07-23T10:09:12;101123.53;;;25.65
45034;BMP280;30771;47.988;-4.186;2022-07-23T10:11:37;101118.88;;;25.71
45034;BMP280;30771;47.988;-4.186;2022-07-23T10:14:03;101127.84;;;25.85
45034;BMP280;30771;47.988;-4.186;2022-07-23T10:16:28;101131.84;;;25.87
45034;BMP280;30771;47.988;-4.186;2022-07-23T10:18:55;101116.22;;;26.03
45034;BMP280;30771;47.988;-4.186;2022-07-23T10:21:46;101124.25;;;26.08
45034;BMP280;30771;47.988;-4.186;2022-07-23T10:24:20;101132.50;;;25.98
45034;BMP280;30771;47.988;-4.186;2022-07-23T10:27:16;101132.13;;;26.04
45034;BMP280;30771;47.988;-4.186;2022-07-23T10:29:52;101136.94;;;26.07
45034;BMP280;30771;47.988;-4.186;2022-07-23T10:42:38;101144.84;;;25.85
45034;BMP280;30771;47.988;-4.186;2022-07-23T10:47:52;101136.19;;;25.88
45034;BMP280;30771;47.988;-4.186;2022-07-23T10:50:29;101140.03;;;25.82
45034;BMP280;30771;47.988;-4.186;2022-07-23T10:57:57;101127.59;;;26.18
45034;BMP280;30771;47.988;-4.186;2022-07-23T11:00:24;101133.53;;;26.34
45034;BMP280;30771;47.988;-4.186;2022-07-23T11:02:57;101138.19;;;26.28
45034;BMP280;30771;47.988;-4.186;2022-07-23T11:05:26;101149.09;;;26.23
45034;BMP280;30771;47.988;-4.186;2022-07-23T11:10:34;101150.75;;;25.87
45034;BMP280;30771;47.988;-4.186;2022-07-23T11:18:57;101147.16;;;25.55
45034;BMP280;30771;47.988;-4.186;2022-07-23T11:24:00;101140.09;;;25.77
45034;BMP280;30771;47.988;-4.186;2022-07-23T11:31:53;101135.38;;;25.69
45034;BMP280;30771;47.988;-4.186;2022-07-23T11:34:46;101128.13;;;25.83
45034;BMP280;30771;47.988;-4.186;2022-07-23T11:37:15;101129.31;;;25.96
45034;BMP280;30771;47.988;-4.186;2022-07-23T11:39:54;101122.78;;;25.97
45034;BMP280;30771;47.988;-4.186;2022-07-23T11:42:20;101131.78;;;25.92
45034;BMP280;30771;47.988;-4.186;2022-07-23T11:44:46;101141.53;;;25.70
45034;BMP280;30771;47.988;-4.186;2022-07-23T11:47:12;101145.38;;;25.45
45034;BMP280;30771;47.988;-4.186;2022-07-23T11:49:37;101136.22;;;25.46
45034;BMP280;30771;47.988;-4.186;2022-07-23T11:52:04;101140.91;;;25.59
45034;BMP280;30771;47.988;-4.186;2022-07-23T11:54:30;101130.63;;;25.61
45034;BMP280;30771;47.988;-4.186;2022-07-23T11:56:57;101136.13;;;25.70
45034;BMP280;30771;47.988;-4.186;2022-07-23T11:59:24;101133.09;;;25.58
45034;BMP280;30771;47.988;-4.186;2022-07-23T12:02:00;101134.91;;;25.62
45034;BMP280;30771;47.988;-4.186;2022-07-23T12:04:46;101127.47;;;25.54
45034;BMP280;30771;47.988;-4.186;2022-07-23T12:09:49;101148.94;;;25.41
45034;BMP280;30771;47.988;-4.186;2022-07-23T12:12:14;101144.38;;;25.41
45034;BMP280;30771;47.988;-4.186;2022-07-23T12:14:57;101149.31;;;25.34
45034;BMP280;30771;47.988;-4.186;2022-07-23T12:17:35;101137.59;;;25.44
45034;BMP280;30771;47.988;-4.186;2022-07-23T12:20:01;101142.84;;;25.54
45034;BMP280;30771;47.988;-4.186;2022-07-23T12:22:34;101139.44;;;25.67
45034;BMP280;30771;47.988;-4.186;2022-07-23T12:25:03;101153.75;;;25.86
45034;BMP280;30771;47.988;-4.186;2022-07-23T12:27:29;101145.19;;;25.97
45034;BMP280;30771;47.988;-4.186;2022-07-23T12:29:54;101140.28;;;25.99
45034;BMP280;30771;47.988;-4.186;2022-07-23T12:32:25;101144.03;;;26.03
45034;BMP280;30771;47.988;-4.186;2022-07-23T12:35:05;101144.19;;;25.93
45034;BMP280;30771;47.988;-4.186;2022-07-23T12:37:42;101143.50;;;26.01
45034;BMP280;30771;47.988;-4.186;2022-07-23T12:43:07;101154.03;;;25.66
45034;BMP280;30771;47.988;-4.186;2022-07-23T12:45:47;101145.38;;;25.69
45034;BMP280;30771;47.988;-4.186;2022-07-23T12:48:17;101153.13;;;25.70
45034;BMP280;30771;47.988;-4.186;2022-07-23T12:50:57;101162.72;;;25.63
45034;BMP280;30771;47.988;-4.186;2022-07-23T12:53:24;101152.28;;;25.56
45034;BMP280;30771;47.988;-4.186;2022-07-23T12:55:51;101142.06;;;25.53
45034;BMP280;30771;47.988;-4.186;2022-07-23T12:58:21;101137.66;;;25.57
45034;BMP280;30771;47.988;-4.186;2022-07-23T13:06:01;101122.47;;;25.66
45034;BMP280;30771;47.988;-4.186;2022-07-23T13:08:30;101126.81;;;25.62
45034;BMP280;30771;47.988;-4.186;2022-07-23T13:10:56;101130.66;;;25.38
45034;BMP280;30771;47.988;-4.186;2022-07-23T13:13:23;101143.19;;;25.05
45034;BMP280;30771;47.988;-4.186;2022-07-23T13:15:49;101125.47;;;24.99
45034;BMP280;30771;47.988;-4.186;2022-07-23T13:18:15;101132.06;;;24.88
45034;BMP280;30771;47.988;-4.186;2022-07-23T13:20:40;101138.47;;;24.92
45034;BMP280;30771;47.988;-4.186;2022-07-23T13:23:06;101143.69;;;24.84
45034;BMP280;30771;47.988;-4.186;2022-07-23T13:25:32;101122.19;;;25.02
45034;BMP280;30771;47.988;-4.186;2022-07-23T13:27:57;101121.66;;;25.24
45034;BMP280;30771;47.988;-4.186;2022-07-23T13:30:22;101125.16;;;25.24
45034;BMP280;30771;47.988;-4.186;2022-07-23T13:32:48;101134.72;;;25.35
45034;BMP280;30771;47.988;-4.186;2022-07-23T13:35:13;101136.00;;;25.43
45034;BMP280;30771;47.988;-4.186;2022-07-23T13:37:39;101129.56;;;25.39
45034;BMP280;30771;47.988;-4.186;2022-07-23T13:40:04;101129.00;;;25.42
45034;BMP280;30771;47.988;-4.186;2022-07-23T13:42:30;101134.03;;;25.48
45034;BMP280;30771;47.988;-4.186;2022-07-23T13:44:55;101144.25;;;25.51
45034;BMP280;30771;47.988;-4.186;2022-07-23T13:47:20;101121.84;;;25.51
45034;BMP280;30771;47.988;-4.186;2022-07-23T13:49:46;101111.19;;;25.41
45034;BMP280;30771;47.988;-4.186;2022-07-23T13:52:11;101116.41;;;25.56
45034;BMP280;30771;47.988;-4.186;2022-07-23T13:54:36;101097.97;;;25.63
45034;BMP280;30771;47.988;-4.186;2022-07-23T13:57:02;101118.78;;;25.57
45034;BMP280;30771;47.988;-4.186;2022-07-23T13:59:27;101121.16;;;25.40
45034;BMP280;30771;47.988;-4.186;2022-07-23T14:01:53;101121.00;;;25.13
45034;BMP280;30771;47.988;-4.186;2022-07-23T14:04:19;101106.06;;;25.21
45034;BMP280;30771;47.988;-4.186;2022-07-23T14:06:44;101112.50;;;25.25
45034;BMP280;30771;47.988;-4.186;2022-07-23T14:09:09;101123.50;;;25.05
45034;BMP280;30771;47.988;-4.186;2022-07-23T14:11:35;101121.06;;;24.80
45034;BMP280;30771;47.988;-4.186;2022-07-23T14:14:00;101116.84;;;24.74
45034;BMP280;30771;47.988;-4.186;2022-07-23T14:16:25;101126.53;;;25.03
45034;BMP280;30771;47.988;-4.186;2022-07-23T14:18:50;101120.13;;;25.18
45034;BMP280;30771;47.988;-4.186;2022-07-23T14:21:16;101118.84;;;25.34
45034;BMP280;30771;47.988;-4.186;2022-07-23T14:23:41;101112.88;;;25.37
45034;BMP280;30771;47.988;-4.186;2022-07-23T14:26:06;101113.44;;;25.15
45034;BMP280;30771;47.988;-4.186;2022-07-23T14:28:33;101112.56;;;25.20
45034;BMP280;30771;47.988;-4.186;2022-07-23T14:30:58;101114.91;;;25.26
45034;BMP280;30771;47.988;-4.186;2022-07-23T14:33:23;101100.28;;;25.32
45034;BMP280;30771;47.988;-4.186;2022-07-23T14:35:49;101097.22;;;25.39
45034;BMP280;30771;47.988;-4.186;2022-07-23T14:38:14;101098.34;;;25.33
45034;BMP280;30771;47.988;-4.186;2022-07-23T14:40:40;101097.25;;;25.34
45034;BMP280;30771;47.988;-4.186;2022-07-23T14:43:05;101095.38;;;25.34
45034;BMP280;30771;47.988;-4.186;2022-07-23T14:45:30;101097.47;;;25.19
45034;BMP280;30771;47.988;-4.186;2022-07-23T14:47:56;101090.66;;;25.03
45034;BMP280;30771;47.988;-4.186;2022-07-23T14:50:21;101093.97;;;24.95
45034;BMP280;30771;47.988;-4.186;2022-07-23T14:52:46;101093.63;;;25.01
45034;BMP280;30771;47.988;-4.186;2022-07-23T14:55:12;101094.78;;;24.95
45034;BMP280;30771;47.988;-4.186;2022-07-23T14:57:37;101094.34;;;24.88
45034;BMP280;30771;47.988;-4.186;2022-07-23T15:00:06;101080.75;;;24.98
45034;BMP280;30771;47.988;-4.186;2022-07-23T15:02:31;101089.28;;;25.05
45034;BMP280;30771;47.988;-4.186;2022-07-23T15:04:57;101084.16;;;25.04
45034;BMP280;30771;47.988;-4.186;2022-07-23T15:07:22;101082.59;;;25.03
45034;BMP280;30771;47.988;-4.186;2022-07-23T15:09:47;101085.88;;;25.18
45034;BMP280;30771;47.988;-4.186;2022-07-23T15:12:13;101085.25;;;25.26
45034;BMP280;30771;47.988;-4.186;2022-07-23T15:14:38;101085.53;;;25.25
45034;BMP280;30771;47.988;-4.186;2022-07-23T15:17:03;101083.28;;;25.32
45034;BMP280;30771;47.988;-4.186;2022-07-23T15:19:28;101085.16;;;25.31
45034;BMP280;30771;47.988;-4.186;2022-07-23T15:21:54;101082.66;;;25.16
45034;BMP280;30771;47.988;-4.186;2022-07-23T15:24:19;101083.03;;;25.10
45034;BMP280;30771;47.988;-4.186;2022-07-23T15:26:44;101077.19;;;25.21
45034;BMP280;30771;47.988;-4.186;2022-07-23T15:29:09;101073.69;;;25.21
45034;BMP280;30771;47.988;-4.186;2022-07-23T15:31:35;101069.50;;;24.91
45034;BMP280;30771;47.988;-4.186;2022-07-23T15:34:00;101063.19;;;24.77
45034;BMP280;30771;47.988;-4.186;2022-07-23T15:36:25;101065.75;;;24.87
45034;BMP280;30771;47.988;-4.186;2022-07-23T15:38:51;101061.84;;;25.03
45034;BMP280;30771;47.988;-4.186;2022-07-23T15:41:16;101063.28;;;25.14
45034;BMP280;30771;47.988;-4.186;2022-07-23T15:43:41;101054.69;;;25.12
45034;BMP280;30771;47.988;-4.186;2022-07-23T15:46:07;101051.34;;;25.20
45034;BMP280;30771;47.988;-4.186;2022-07-23T15:48:35;101050.44;;;25.30
45034;BMP280;30771;47.988;-4.186;2022-07-23T15:51:00;101054.69;;;25.31
45034;BMP280;30771;47.988;-4.186;2022-07-23T15:53:26;101050.91;;;25.13
45034;BMP280;30771;47.988;-4.186;2022-07-23T15:55:51;101049.66;;;25.24
45034;BMP280;30771;47.988;-4.186;2022-07-23T15:58:16;101048.09;;;25.42
45034;BMP280;30771;47.988;-4.186;2022-07-23T16:00:42;101051.66;;;25.56
45034;BMP280;30771;47.988;-4.186;2022-07-23T16:03:07;101050.50;;;25.62
45034;BMP280;30771;47.988;-4.186;2022-07-23T16:05:32;101055.44;;;25.36
45034;BMP280;30771;47.988;-4.186;2022-07-23T16:07:59;101049.03;;;25.32
45034;BMP280;30771;47.988;-4.186;2022-07-23T16:10:24;101049.09;;;25.27
45034;BMP280;30771;47.988;-4.186;2022-07-23T16:12:50;101047.59;;;25.40
45034;BMP280;30771;47.988;-4.186;2022-07-23T16:15:15;101043.25;;;25.57
45034;BMP280;30771;47.988;-4.186;2022-07-23T16:17:41;101048.72;;;25.71
45034;BMP280;30771;47.988;-4.186;2022-07-23T16:20:07;101042.69;;;25.79
45034;BMP280;30771;47.988;-4.186;2022-07-23T16:22:32;101038.28;;;25.83
45034;BMP280;30771;47.988;-4.186;2022-07-23T16:24:58;101020.19;;;25.83
45034;BMP280;30771;47.988;-4.186;2022-07-23T16:27:23;101012.50;;;25.90
45034;BMP280;30771;47.988;-4.186;2022-07-23T16:29:48;101029.94;;;25.98
45034;BMP280;30771;47.988;-4.186;2022-07-23T16:32:14;101022.31;;;26.00
45034;BMP280;30771;47.988;-4.186;2022-07-23T16:34:39;101024.13;;;25.91
45034;BMP280;30771;47.988;-4.186;2022-07-23T16:37:07;101029.03;;;25.89
45034;BMP280;30771;47.988;-4.186;2022-07-23T16:39:33;101031.91;;;25.92
45034;BMP280;30771;47.988;-4.186;2022-07-23T16:41:58;101021.41;;;25.91
45034;BMP280;30771;47.988;-4.186;2022-07-23T16:44:23;101023.13;;;26.00
45034;BMP280;30771;47.988;-4.186;2022-07-23T16:46:49;101025.19;;;26.08
45034;BMP280;30771;47.988;-4.186;2022-07-23T16:49:14;101015.34;;;25.99
45034;BMP280;30771;47.988;-4.186;2022-07-23T16:51:39;101018.72;;;25.91
45034;BMP280;30771;47.988;-4.186;2022-07-23T16:54:04;101017.84;;;25.95
45034;BMP280;30771;47.988;-4.186;2022-07-23T16:56:30;101026.13;;;25.99
45034;BMP280;30771;47.988;-4.186;2022-07-23T16:58:55;101019.19;;;25.93
45034;BMP280;30771;47.988;-4.186;2022-07-23T17:01:20;101024.13;;;25.91
45034;BMP280;30771;47.988;-4.186;2022-07-23T17:03:45;101017.84;;;25.95
45034;BMP280;30771;47.988;-4.186;2022-07-23T17:06:11;101021.25;;;26.01
45034;BMP280;30771;47.988;-4.186;2022-07-23T17:08:36;101018.31;;;25.97
45034;BMP280;30771;47.988;-4.186;2022-07-23T17:11:01;101023.22;;;25.95
45034;BMP280;30771;47.988;-4.186;2022-07-23T17:13:27;101026.91;;;25.99
45034;BMP280;30771;47.988;-4.186;2022-07-23T17:15:54;101026.34;;;26.02
45034;BMP280;30771;47.988;-4.186;2022-07-23T17:18:20;101020.78;;;25.94
45034;BMP280;30771;47.988;-4.186;2022-07-23T17:20:46;101028.31;;;25.97
45034;BMP280;30771;47.988;-4.186;2022-07-23T17:23:12;101023.00;;;25.92
45034;BMP280;30771;47.988;-4.186;2022-07-23T17:25:37;101022.88;;;25.83
45034;BMP280;30771;47.988;-4.186;2022-07-23T17:28:03;101033.84;;;25.73
45034;BMP280;30771;47.988;-4.186;2022-07-23T17:30:28;101032.25;;;25.72
45034;BMP280;30771;47.988;-4.186;2022-07-23T17:32:54;101030.34;;;25.73
45034;BMP280;30771;47.988;-4.186;2022-07-23T17:35:19;101028.97;;;25.75
45034;BMP280;30771;47.988;-4.186;2022-07-23T17:37:44;101028.38;;;25.78
45034;BMP280;30771;47.988;-4.186;2022-07-23T17:40:11;101028.63;;;25.77
45034;BMP280;30771;47.988;-4.186;2022-07-23T17:42:36;101030.59;;;25.76
45034;BMP280;30771;47.988;-4.186;2022-07-23T17:45:03;101027.63;;;25.91
45034;BMP280;30771;47.988;-4.186;2022-07-23T17:47:29;101018.66;;;25.96
45034;BMP280;30771;47.988;-4.186;2022-07-23T17:49:54;101011.59;;;26.27
45034;BMP280;30771;47.988;-4.186;2022-07-23T17:52:19;101011.00;;;26.43
45034;BMP280;30771;47.988;-4.186;2022-07-23T17:54:44;101003.06;;;26.60
45034;BMP280;30771;47.988;-4.186;2022-07-23T17:57:10;101003.31;;;27.00
45034;BMP280;30771;47.988;-4.186;2022-07-23T17:59:35;100990.16;;;27.42
45034;BMP280;30771;47.988;-4.186;2022-07-23T18:02:01;100987.28;;;28.39
45034;BMP280;30771;47.988;-4.186;2022-07-23T18:04:26;100969.03;;;29.75
45034;BMP280;30771;47.988;-4.186;2022-07-23T18:06:51;100976.50;;;30.86
45034;BMP280;30771;47.988;-4.186;2022-07-23T18:09:17;100981.25;;;31.66
45034;BMP280;30771;47.988;-4.186;2022-07-23T18:11:43;100962.47;;;32.36
45034;BMP280;30771;47.988;-4.186;2022-07-23T18:14:10;100956.41;;;32.98
45034;BMP280;30771;47.988;-4.186;2022-07-23T18:16:36;100957.88;;;33.54
45034;BMP280;30771;47.988;-4.186;2022-07-23T18:19:03;100955.78;;;33.97
45034;BMP280;30771;47.988;-4.186;2022-07-23T18:21:30;100957.88;;;34.23
45034;BMP280;30771;47.988;-4.186;2022-07-23T18:23:55;100962.63;;;34.45
45034;BMP280;30771;47.988;-4.186;2022-07-23T18:26:20;100971.84;;;34.56
45034;BMP280;30771;47.988;-4.186;2022-07-23T18:28:46;100982.09;;;34.59
45034;BMP280;30771;47.988;-4.186;2022-07-23T18:31:12;100970.06;;;34.86
45034;BMP280;30771;47.988;-4.186;2022-07-23T18:33:37;100968.13;;;35.31
45034;BMP280;30771;47.988;-4.186;2022-07-23T18:36:04;100964.66;;;35.57
45034;BMP280;30771;47.988;-4.186;2022-07-23T18:38:30;100973.25;;;35.85
45034;BMP280;30771;47.988;-4.186;2022-07-23T18:40:56;100973.44;;;35.99
45034;BMP280;30771;47.988;-4.186;2022-07-23T18:43:22;100970.63;;;35.92
45034;BMP280;30771;47.988;-4.186;2022-07-23T18:45:47;100975.09;;;35.77
45034;BMP280;30771;47.988;-4.186;2022-07-23T18:48:13;100972.69;;;35.72
45034;BMP280;30771;47.988;-4.186;2022-07-23T18:50:38;100978.38;;;35.60
45034;BMP280;30771;47.988;-4.186;2022-07-23T18:53:04;100974.31;;;35.51
45034;BMP280;30771;47.988;-4.186;2022-07-23T18:55:29;100981.84;;;35.57
45034;BMP280;30771;47.988;-4.186;2022-07-23T18:57:54;100978.25;;;35.76
45034;BMP280;30771;47.988;-4.186;2022-07-23T19:00:20;100983.66;;;35.72
45034;BMP280;30771;47.988;-4.186;2022-07-23T19:02:46;100983.66;;;35.46
45034;BMP280;30771;47.988;-4.186;2022-07-23T19:05:11;100984.38;;;35.21
45034;BMP280;30771;47.988;-4.186;2022-07-23T19:07:36;100985.50;;;35.16
45034;BMP280;30771;47.988;-4.186;2022-07-23T19:10:05;100988.47;;;35.08
45034;BMP280;30771;47.988;-4.186;2022-07-23T19:12:31;100990.56;;;34.73
45034;BMP280;30771;47.988;-4.186;2022-07-23T19:14:56;100993.28;;;34.16
45034;BMP280;30771;47.988;-4.186;2022-07-23T19:17:21;100997.53;;;33.32
45034;BMP280;30771;47.988;-4.186;2022-07-23T19:19:47;101017.47;;;31.78
45034;BMP280;30771;47.988;-4.186;2022-07-23T19:22:12;101025.41;;;30.24
45034;BMP280;30771;47.988;-4.186;2022-07-23T19:24:37;101025.53;;;28.93
45034;BMP280;30771;47.988;-4.186;2022-07-23T19:27:03;101035.81;;;27.88
45034;BMP280;30771;47.988;-4.186;2022-07-23T19:29:28;101032.19;;;26.91
45034;BMP280;30771;47.988;-4.186;2022-07-23T19:31:53;101041.94;;;26.37
45034;BMP280;30771;47.988;-4.186;2022-07-23T19:34:19;101026.13;;;25.99
45034;BMP280;30771;47.988;-4.186;2022-07-23T19:36:44;101033.25;;;25.58
45034;BMP280;30771;47.988;-4.186;2022-07-23T19:39:09;101023.69;;;24.91
45034;BMP280;30771;47.988;-4.186;2022-07-23T19:41:34;101032.44;;;24.55
45034;BMP280;30771;47.988;-4.186;2022-07-23T19:44:00;101027.13;;;24.21
45034;BMP280;30771;47.988;-4.186;2022-07-23T19:46:25;101033.56;;;23.92
45034;BMP280;30771;47.988;-4.186;2022-07-23T19:48:50;101027.84;;;23.64
45034;BMP280;30771;47.988;-4.186;2022-07-23T19:51:16;101025.03;;;23.46
45034;BMP280;30771;47.988;-4.186;2022-07-23T19:53:41;101025.66;;;23.18
45034;BMP280;30771;47.988;-4.186;2022-07-23T19:56:06;101013.97;;;22.94
45034;BMP280;30771;47.988;-4.186;2022-07-23T19:58:32;101016.75;;;22.69
45034;BMP280;30771;47.988;-4.186;2022-07-23T20:00:57;101014.63;;;22.46
45034;BMP280;30771;47.988;-4.186;2022-07-23T20:03:22;101009.25;;;22.26
45034;BMP280;30771;47.988;-4.186;2022-07-23T20:05:48;101024.31;;;22.12
45034;BMP280;30771;47.988;-4.186;2022-07-23T20:08:13;101017.59;;;21.94
45034;BMP280;30771;47.988;-4.186;2022-07-23T20:10:38;101014.88;;;21.74
45034;BMP280;30771;47.988;-4.186;2022-07-23T20:13:03;101013.25;;;21.58
45034;BMP280;30771;47.988;-4.186;2022-07-23T20:15:29;101008.13;;;21.46
45034;BMP280;30771;47.988;-4.186;2022-07-23T20:17:55;101005.09;;;21.33
45034;BMP280;30771;47.988;-4.186;2022-07-23T20:20:20;101011.78;;;21.25
45034;BMP280;30771;47.988;-4.186;2022-07-23T20:22:46;101014.69;;;21.14
45034;BMP280;30771;47.988;-4.186;2022-07-23T20:25:11;101011.94;;;21.04
45034;BMP280;30771;47.988;-4.186;2022-07-23T20:27:36;101011.09;;;20.93
45034;BMP280;30771;47.988;-4.186;2022-07-23T20:30:06;101014.81;;;20.87
45034;BMP280;30771;47.988;-4.186;2022-07-23T20:32:32;101015.78;;;20.76
45034;BMP280;30771;47.988;-4.186;2022-07-23T20:34:57;101014.41;;;20.69
45034;BMP280;30771;47.988;-4.186;2022-07-23T20:37:22;101017.34;;;20.62
45034;BMP280;30771;47.988;-4.186;2022-07-23T20:39:47;101017.28;;;20.57
45034;BMP280;30771;47.988;-4.186;2022-07-23T20:42:13;101026.59;;;20.50